createdAt,value
2023-11-17T00:02:11.847Z,98245.59
2023-11-17T00:04:39.729Z,98256.38
2023-11-17T00:07:07.898Z,98255.78
2023-11-17T00:09:35.836Z,98267.34
2023-11-17T00:12:06.566Z,98277.03
2023-11-17T00:14:35.300Z,98295.16
2023-11-17T00:17:04.252Z,98303.16
2023-11-17T00:19:32.195Z,98313.34
2023-11-17T00:22:00.116Z,98317.22
2023-11-17T00:24:28.957Z,98341.66
2023-11-17T00:26:56.737Z,98338.19
2023-11-17T00:29:25.877Z,98357.91
2023-11-17T00:31:53.902Z,98364.47
2023-11-17T00:34:21.742Z,98375.84
2023-11-17T00:36:49.758Z,98386.97
2023-11-17T00:39:18.272Z,98386.00
2023-11-17T00:41:46.331Z,98405.50
2023-11-17T00:44:14.242Z,98410.38
2023-11-17T00:46:43.705Z,98420.47
2023-11-17T00:49:11.556Z,98426.00
2023-11-17T00:51:41.224Z,98439.63
2023-11-17T00:54:09.092Z,98438.50
2023-11-17T00:56:36.819Z,98453.31
2023-11-17T00:59:06.050Z,98459.97
2023-11-17T01:01:35.785Z,98465.19
2023-11-17T01:04:05.600Z,98475.41
2023-11-17T01:06:33.475Z,98487.56
2023-11-17T01:09:01.854Z,98489.28
2023-11-17T01:11:30.597Z,98495.25
2023-11-17T01:13:58.902Z,98507.38
2023-11-17T01:16:27.327Z,98521.19
2023-11-17T01:18:55.149Z,98513.22
2023-11-17T01:21:25.596Z,98530.44
2023-11-17T01:23:53.399Z,98532.31
2023-11-17T01:26:21.215Z,98548.19
2023-11-17T01:28:49.025Z,98557.56
2023-11-17T01:31:16.935Z,98554.75
2023-11-17T01:33:44.944Z,98573.75
2023-11-17T01:36:14.825Z,98587.25
2023-11-17T01:38:50.863Z,98598.41
2023-11-17T01:41:22.504Z,98598.88
2023-11-17T01:43:51.493Z,98616.47
2023-11-17T01:46:21.025Z,98617.34
2023-11-17T01:48:49.328Z,98627.22
2023-11-17T01:51:17.266Z,98629.03
2023-11-17T01:53:47.560Z,98624.91
2023-11-17T01:56:15.867Z,98633.72
2023-11-17T01:58:43.708Z,98645.69
2023-11-17T02:01:11.762Z,98648.81
2023-11-17T02:03:41.482Z,98661.69
2023-11-17T02:06:22.732Z,98670.19
2023-11-17T02:09:02.140Z,98664.56
2023-11-17T02:11:36.588Z,98668.50
2023-11-17T02:14:07.649Z,98675.03
2023-11-17T02:16:38.256Z,98676.97
2023-11-17T02:19:16.539Z,98684.16
2023-11-17T02:21:46.949Z,98690.59
2023-11-17T02:24:18.048Z,98685.50
2023-11-17T02:26:54.001Z,98696.81
2023-11-17T02:29:28.595Z,98699.56
2023-11-17T02:31:58.950Z,98694.50
2023-11-17T02:34:27.470Z,98705.88
2023-11-17T02:36:55.709Z,98713.50
2023-11-17T02:39:27.487Z,98713.88
2023-11-17T02:41:59.729Z,98732.13
2023-11-17T02:44:30.973Z,98738.06
2023-11-17T02:47:01.057Z,98738.25
2023-11-17T02:49:41.846Z,98747.09
2023-11-17T02:52:13.366Z,98748.81
2023-11-17T02:54:42.848Z,98767.56
2023-11-17T02:57:12.370Z,98765.25
2023-11-17T02:59:41.752Z,98763.69
2023-11-17T03:02:09.568Z,98769.72
2023-11-17T03:04:38.344Z,98771.09
2023-11-17T03:07:06.288Z,98772.13
2023-11-17T03:09:34.142Z,98780.13
2023-11-17T03:12:03.962Z,98773.75
2023-11-17T03:14:32.086Z,98770.53
2023-11-17T03:17:02.188Z,98783.75
2023-11-17T03:19:31.456Z,98788.00
2023-11-17T03:21:59.473Z,98781.72
2023-11-17T03:24:29.210Z,98790.28
2023-11-17T03:26:59.016Z,98795.81
2023-11-17T03:29:29.013Z,98799.13
2023-11-17T03:31:58.987Z,98810.75
2023-11-17T03:34:31.487Z,98813.97
2023-11-17T03:37:01.528Z,98806.88
2023-11-17T03:39:31.475Z,98822.88
2023-11-17T03:42:02.272Z,98821.19
2023-11-17T03:44:30.201Z,98828.94
2023-11-17T03:46:58.432Z,98830.22
2023-11-17T03:49:28.305Z,98821.44
2023-11-17T03:51:57.175Z,98824.28
2023-11-17T03:54:25.076Z,98822.44
2023-11-17T03:56:53.962Z,98816.81
2023-11-17T03:59:23.178Z,98831.69
2023-11-17T04:01:51.930Z,98837.09
2023-11-17T04:04:20.934Z,98847.50
2023-11-17T04:06:50.661Z,98853.44
2023-11-17T04:09:22.283Z,98851.84
2023-11-17T04:11:51.640Z,98864.09
2023-11-17T04:14:23.583Z,98867.38
2023-11-17T04:16:52.177Z,98871.09
2023-11-17T04:19:21.126Z,98868.94
2023-11-17T04:21:51.058Z,98864.41
2023-11-17T04:24:19.245Z,98869.44
2023-11-17T04:26:47.552Z,98859.72
2023-11-17T04:29:15.561Z,98866.25
2023-11-17T04:31:44.923Z,98863.16
2023-11-17T04:34:13.491Z,98872.25
2023-11-17T04:36:41.361Z,98885.72
2023-11-17T04:39:18.129Z,98877.31
2023-11-17T04:41:46.059Z,98878.97
2023-11-17T04:44:14.300Z,98883.31
2023-11-17T04:46:42.402Z,98882.38
2023-11-17T04:49:10.475Z,98879.09
2023-11-17T04:51:38.371Z,98882.97
2023-11-17T04:54:06.857Z,98877.91
2023-11-17T04:56:36.370Z,98892.47
2023-11-17T04:59:04.372Z,98889.06
2023-11-17T05:01:32.188Z,98887.94
2023-11-17T05:04:01.461Z,98893.34
2023-11-17T05:06:29.294Z,98889.06
2023-11-17T05:08:57.100Z,98890.13
2023-11-17T05:11:25.050Z,98895.41
2023-11-17T05:13:54.136Z,98891.75
2023-11-17T05:16:21.948Z,98891.13
2023-11-17T05:18:49.844Z,98892.81
2023-11-17T05:21:18.282Z,98901.56
2023-11-17T05:23:46.018Z,98889.56
2023-11-17T05:26:14.258Z,98894.25
2023-11-17T05:28:42.106Z,98897.47
2023-11-17T05:31:11.737Z,98897.53
2023-11-17T05:33:41.375Z,98906.91
2023-11-17T05:36:10.907Z,98915.72
2023-11-17T05:38:40.005Z,98913.69
2023-11-17T05:41:10.026Z,98914.94
2023-11-17T05:43:37.930Z,98913.31
2023-11-17T05:46:06.901Z,98918.78
2023-11-17T05:48:36.288Z,98928.81
2023-11-17T05:51:10.447Z,98927.75
2023-11-17T05:53:39.645Z,98921.47
2023-11-17T05:56:09.076Z,98929.88
2023-11-17T05:58:37.058Z,98932.03
2023-11-17T06:01:05.103Z,98939.38
2023-11-17T06:03:32.964Z,98942.91
2023-11-17T06:06:04.061Z,98943.91
2023-11-17T06:08:33.567Z,98940.84
2023-11-17T06:11:01.500Z,98942.47
2023-11-17T06:13:29.372Z,98936.50
2023-11-17T06:15:57.488Z,98927.63
2023-11-17T06:18:25.355Z,98936.00
2023-11-17T06:20:53.144Z,98938.94
2023-11-17T06:23:22.284Z,98939.78
2023-11-17T06:25:50.002Z,98947.69
2023-11-17T06:28:17.795Z,98940.84
2023-11-17T06:30:45.902Z,98939.91
2023-11-17T06:33:13.863Z,98946.31
2023-11-17T06:35:41.704Z,98949.56
2023-11-17T06:38:09.782Z,98953.53
2023-11-17T06:40:38.958Z,98959.63
2023-11-17T06:43:07.847Z,98955.16
2023-11-17T06:45:35.894Z,98960.75
2023-11-17T06:48:04.258Z,98957.56
2023-11-17T06:50:32.222Z,98950.81
2023-11-17T06:53:00.029Z,98956.53
2023-11-17T06:55:29.034Z,98960.16
2023-11-17T06:57:58.154Z,98960.81
2023-11-17T07:00:25.896Z,98966.06
2023-11-17T07:02:53.650Z,98970.59
2023-11-17T07:05:23.561Z,98988.94
2023-11-17T07:07:53.496Z,98980.50
2023-11-17T07:10:21.561Z,98988.28
2023-11-17T07:12:50.417Z,98987.56
2023-11-17T07:15:19.739Z,98993.38
2023-11-17T07:17:48.267Z,99000.50
2023-11-17T07:20:18.574Z,99012.75
2023-11-17T07:22:46.443Z,99018.44
2023-11-17T07:25:15.135Z,99020.44
2023-11-17T07:27:44.491Z,99028.50
2023-11-17T07:30:14.359Z,99029.97
2023-11-17T07:32:44.960Z,99024.53
2023-11-17T07:35:13.356Z,99038.72
2023-11-17T07:37:41.344Z,99027.81
2023-11-17T07:40:11.112Z,99032.84
2023-11-17T07:42:40.750Z,99036.97
2023-11-17T07:45:12.561Z,99040.19
2023-11-17T07:47:42.332Z,99039.06
2023-11-17T07:50:15.286Z,99038.44
2023-11-17T07:52:44.882Z,99034.53
2023-11-17T07:55:15.457Z,99050.50
2023-11-17T07:57:43.566Z,99046.78
2023-11-17T08:00:19.763Z,99056.53
2023-11-17T08:02:48.169Z,99052.88
2023-11-17T08:05:17.635Z,99055.72
2023-11-17T08:07:47.044Z,99058.00
2023-11-17T08:10:15.532Z,99061.28
2023-11-17T08:12:47.905Z,99050.34
2023-11-17T08:15:18.080Z,99059.16
2023-11-17T08:17:45.930Z,99049.59
2023-11-17T08:20:15.529Z,99050.47
2023-11-17T08:22:48.323Z,99052.44
2023-11-17T08:25:17.216Z,99059.03
2023-11-17T08:27:45.175Z,99063.69
2023-11-17T08:30:13.700Z,99063.91
2023-11-17T08:32:41.795Z,99068.16
2023-11-17T08:35:12.790Z,99077.09
2023-11-17T08:37:42.372Z,99082.09
2023-11-17T08:40:12.294Z,99083.38
2023-11-17T08:42:40.940Z,99094.06
2023-11-17T08:45:10.440Z,99091.34
2023-11-17T08:47:39.618Z,99092.91
2023-11-17T08:50:10.176Z,99096.06
2023-11-17T08:52:39.048Z,99096.97
2023-11-17T08:55:07.295Z,99088.13
2023-11-17T08:57:37.271Z,99095.97
2023-11-17T09:00:12.770Z,99099.00
2023-11-17T09:02:41.887Z,99098.41
2023-11-17T09:05:10.842Z,99107.47
2023-11-17T09:07:42.498Z,99105.03
2023-11-17T09:10:12.626Z,99105.47
2023-11-17T09:12:46.719Z,99103.38
2023-11-17T09:15:18.027Z,99100.81
2023-11-17T09:17:48.701Z,99103.84
2023-11-17T09:20:19.017Z,99105.50
2023-11-17T09:22:47.870Z,99110.25
2023-11-17T09:25:17.010Z,99116.03
2023-11-17T09:27:48.704Z,99135.63
2023-11-17T09:30:17.542Z,99128.22
2023-11-17T09:32:46.477Z,99120.22
2023-11-17T09:35:16.621Z,99120.66
2023-11-17T09:37:51.776Z,99119.34
2023-11-17T09:40:22.266Z,99126.13
2023-11-17T09:42:52.754Z,99127.94
2023-11-17T09:45:23.013Z,99124.78
2023-11-17T09:47:57.170Z,99119.94
2023-11-17T09:50:26.264Z,99120.75
2023-11-17T09:52:55.169Z,99125.91
2023-11-17T09:55:24.122Z,99115.03
2023-11-17T09:57:55.420Z,99128.38
2023-11-17T10:00:28.452Z,99121.16
2023-11-17T10:02:57.518Z,99124.72
2023-11-17T10:05:26.961Z,99129.22
2023-11-17T10:07:56.922Z,99130.78
2023-11-17T10:10:27.292Z,99126.19
2023-11-17T10:13:01.977Z,99130.81
2023-11-17T10:15:33.595Z,99123.31
2023-11-17T10:18:06.782Z,99131.06
2023-11-17T10:20:35.482Z,99128.38
2023-11-17T10:23:03.736Z,99134.16
2023-11-17T10:25:31.779Z,99132.50
2023-11-17T10:28:04.085Z,99139.59
2023-11-17T10:30:35.515Z,99133.00
2023-11-17T10:33:15.791Z,99137.69
2023-11-17T10:35:44.476Z,99137.47
2023-11-17T10:38:20.461Z,99132.56
2023-11-17T10:40:48.341Z,99134.44
2023-11-17T10:43:17.494Z,99132.69
2023-11-17T10:45:45.910Z,99129.88
2023-11-17T10:48:15.167Z,99128.25
2023-11-17T10:50:44.408Z,99128.06
2023-11-17T10:53:20.956Z,99126.13
2023-11-17T10:55:49.855Z,99129.31
2023-11-17T10:58:19.600Z,99127.44
2023-11-17T11:00:49.092Z,99130.41
2023-11-17T11:03:19.780Z,99137.00
2023-11-17T11:05:49.332Z,99123.47
2023-11-17T11:08:19.535Z,99119.00
2023-11-17T11:10:55.686Z,99125.69
2023-11-17T11:13:30.272Z,99131.28
2023-11-17T11:16:02.256Z,99121.44
2023-11-17T11:18:33.294Z,99121.16
2023-11-17T11:21:01.971Z,99118.06
2023-11-17T11:23:30.010Z,99123.69
2023-11-17T11:25:59.522Z,99127.44
2023-11-17T11:28:30.040Z,99119.72
2023-11-17T11:31:00.018Z,99131.56
2023-11-17T11:33:29.555Z,99124.22
2023-11-17T11:35:57.469Z,99128.31
2023-11-17T11:38:25.644Z,99139.34
2023-11-17T11:40:54.224Z,99139.97
2023-11-17T11:43:22.291Z,99136.44
2023-11-17T11:45:52.507Z,99139.56
2023-11-17T11:48:23.096Z,99132.00
2023-11-17T11:50:56.089Z,99133.94
2023-11-17T11:53:37.238Z,99140.94
2023-11-17T11:56:12.831Z,99125.72
2023-11-17T11:58:45.242Z,99131.88
2023-11-17T12:01:15.686Z,99123.97
2023-11-17T12:03:45.783Z,99127.31
2023-11-17T12:06:20.715Z,99125.44
2023-11-17T12:08:54.998Z,99122.59
2023-11-17T12:11:23.295Z,99122.09
2023-11-17T12:13:52.287Z,99129.53
2023-11-17T12:16:22.940Z,99127.38
2023-11-17T12:18:51.602Z,99127.97
2023-11-17T12:21:23.633Z,99122.78
2023-11-17T12:23:55.050Z,99116.88
2023-11-17T12:26:25.464Z,99128.25
2023-11-17T12:28:54.500Z,99126.66
2023-11-17T12:31:25.298Z,99116.28
2023-11-17T12:33:55.245Z,99126.31
2023-11-17T12:36:24.731Z,99123.88
2023-11-17T12:38:53.926Z,99128.41
2023-11-17T12:41:29.372Z,99121.59
2023-11-17T12:43:58.590Z,99127.13
2023-11-17T12:46:31.574Z,99124.44
2023-11-17T12:49:00.529Z,99131.84
2023-11-17T12:51:29.626Z,99136.97
2023-11-17T12:53:59.616Z,99138.63
2023-11-17T12:56:28.389Z,99150.41
2023-11-17T12:58:57.000Z,99154.53
2023-11-17T13:01:28.009Z,99153.16
2023-11-17T13:03:58.290Z,99146.75
2023-11-17T13:06:28.504Z,99156.19
2023-11-17T13:08:56.958Z,99166.81
2023-11-17T13:11:30.075Z,99164.31
2023-11-17T13:13:58.088Z,99161.31
2023-11-17T13:16:30.730Z,99180.13
2023-11-17T13:19:00.213Z,99175.00
2023-11-17T13:21:32.472Z,99182.69
2023-11-17T13:24:00.688Z,99191.03
2023-11-17T13:26:29.841Z,99181.47
2023-11-17T13:28:58.198Z,99183.75
2023-11-17T13:31:28.944Z,99179.16
2023-11-17T13:33:58.596Z,99188.88
2023-11-17T13:36:28.256Z,99185.31
2023-11-17T13:38:59.579Z,99183.84
2023-11-17T13:41:29.215Z,99185.38
2023-11-17T13:44:01.010Z,99192.31
2023-11-17T13:46:31.579Z,99197.47
2023-11-17T13:49:04.643Z,99195.22
2023-11-17T13:51:38.361Z,99207.50
2023-11-17T13:54:09.121Z,99206.44
2023-11-17T13:56:39.991Z,99206.97
2023-11-17T13:59:11.306Z,99267.59
2023-11-17T14:01:39.715Z,99291.97
2023-11-17T14:04:08.139Z,99297.78
2023-11-17T14:06:36.028Z,99299.78
2023-11-17T14:09:04.509Z,99292.59
2023-11-17T14:11:32.345Z,99275.59
2023-11-17T14:14:00.287Z,99267.16
2023-11-17T14:16:28.182Z,99256.06
2023-11-17T14:18:57.826Z,99253.81
2023-11-17T14:21:25.719Z,99244.16
2023-11-17T14:23:56.293Z,99241.06
2023-11-17T14:26:25.941Z,99249.25
2023-11-17T14:28:53.779Z,99283.06
2023-11-17T14:31:22.840Z,99284.94
2023-11-17T14:33:51.683Z,99270.06
2023-11-17T14:36:20.809Z,99262.78
2023-11-17T14:38:49.883Z,99258.94
2023-11-17T14:41:19.313Z,99255.44
2023-11-17T14:43:47.539Z,99244.94
2023-11-17T14:46:21.072Z,99238.72
2023-11-17T14:48:49.189Z,99248.69
2023-11-17T14:51:18.300Z,99232.69
2023-11-17T14:53:47.730Z,99240.34
2023-11-17T14:56:16.208Z,99251.78
2023-11-17T14:58:44.205Z,99243.38
2023-11-17T15:01:15.696Z,99252.84
2023-11-17T15:03:45.168Z,99252.50
2023-11-17T15:06:17.064Z,99251.28
2023-11-17T15:08:51.402Z,99251.66
2023-11-17T15:11:22.189Z,99259.19
2023-11-17T15:13:52.069Z,99253.69
2023-11-17T15:16:24.496Z,99256.19
2023-11-17T15:18:53.479Z,99265.13
2023-11-17T15:21:22.573Z,99258.78
2023-11-17T15:23:53.089Z,99264.41
2023-11-17T15:26:21.897Z,99270.53
2023-11-17T15:28:53.706Z,99270.91
2023-11-17T15:31:24.255Z,99277.09
2023-11-17T15:33:52.168Z,99268.38
2023-11-17T15:36:20.534Z,99275.50
2023-11-17T15:38:48.760Z,99274.22
2023-11-17T15:41:19.855Z,99281.34
2023-11-17T15:43:48.418Z,99274.59
2023-11-17T15:46:22.646Z,99283.28
2023-11-17T15:48:52.320Z,99275.63
2023-11-17T15:51:20.624Z,99276.72
2023-11-17T15:53:48.593Z,99284.47
2023-11-17T15:56:18.313Z,99273.84
2023-11-17T15:58:46.806Z,99285.78
2023-11-17T16:01:15.352Z,99290.00
2023-11-17T16:03:43.503Z,99289.69
2023-11-17T16:06:11.685Z,99299.84
2023-11-17T16:08:40.507Z,99295.97
2023-11-17T16:11:12.659Z,99291.41
2023-11-17T16:13:42.691Z,99296.94
2023-11-17T16:16:14.408Z,99298.38
2023-11-17T16:18:42.602Z,99305.44
2023-11-17T16:21:11.259Z,99307.53
2023-11-17T16:23:39.831Z,99304.53
2023-11-17T16:26:10.139Z,99301.28
2023-11-17T16:28:39.425Z,99307.53
2023-11-17T16:31:12.072Z,99310.41
2023-11-17T16:33:41.973Z,99307.22
2023-11-17T16:36:13.968Z,99309.03
2023-11-17T16:38:44.304Z,99314.47
2023-11-17T16:41:12.207Z,99315.75
2023-11-17T16:43:40.263Z,99317.19
2023-11-17T16:46:12.450Z,99323.63
2023-11-17T16:48:41.342Z,99326.19
2023-11-17T16:51:11.745Z,99341.81
2023-11-17T16:53:39.694Z,99328.31
2023-11-17T16:56:11.243Z,99337.34
2023-11-17T16:58:41.860Z,99328.38
2023-11-17T17:01:11.414Z,99331.59
2023-11-17T17:03:39.939Z,99336.72
2023-11-17T17:06:13.972Z,99327.56
2023-11-17T17:08:41.766Z,99338.03
2023-11-17T17:11:09.604Z,99348.00
2023-11-17T17:13:41.179Z,99346.59
2023-11-17T17:16:11.181Z,99349.44
2023-11-17T17:18:40.953Z,99349.75
2023-11-17T17:21:09.057Z,99355.91
2023-11-17T17:23:37.236Z,99362.28
2023-11-17T17:26:05.691Z,99352.78
2023-11-17T17:28:35.415Z,99358.81
2023-11-17T17:31:03.537Z,99366.22
2023-11-17T17:33:32.690Z,99373.28
2023-11-17T17:36:00.422Z,99372.19
2023-11-17T17:38:29.095Z,99365.88
2023-11-17T17:40:58.242Z,99367.66
2023-11-17T17:43:26.119Z,99372.19
2023-11-17T17:45:54.503Z,99372.63
2023-11-17T17:48:24.148Z,99369.31
2023-11-17T17:50:57.582Z,99367.53
2023-11-17T17:53:25.383Z,99364.03
2023-11-17T17:55:53.522Z,99367.50
2023-11-17T17:58:21.390Z,99362.97
2023-11-17T18:00:50.029Z,99354.09
2023-11-17T18:03:18.128Z,99344.84
2023-11-17T18:05:46.135Z,99341.97
2023-11-17T18:08:15.299Z,99336.56
2023-11-17T18:10:43.190Z,99348.16
2023-11-17T18:13:11.886Z,99341.47
2023-11-17T18:15:39.860Z,99341.25
2023-11-17T18:18:08.048Z,99364.97
2023-11-17T18:20:36.141Z,99363.94
2023-11-17T18:23:05.228Z,99364.78
2023-11-17T18:25:34.449Z,99369.44
2023-11-17T18:28:02.363Z,99373.50
2023-11-17T18:30:31.595Z,99380.56
2023-11-17T18:32:59.482Z,99373.31
2023-11-17T18:35:27.307Z,99373.81
2023-11-17T18:37:55.464Z,99373.97
2023-11-17T18:40:26.309Z,99381.13
2023-11-17T18:42:58.861Z,99390.25
2023-11-17T18:45:27.775Z,99397.03
2023-11-17T18:47:56.667Z,99399.53
2023-11-17T18:50:25.065Z,99405.53
2023-11-17T18:52:54.700Z,99416.19
2023-11-17T18:55:23.007Z,99407.47
2023-11-17T18:57:51.452Z,99405.72
2023-11-17T19:00:22.086Z,99412.78
2023-11-17T19:02:52.047Z,99411.81
2023-11-17T19:05:20.913Z,99409.25
2023-11-17T19:07:50.384Z,99413.13
2023-11-17T19:10:21.352Z,99416.00
2023-11-17T19:12:51.715Z,99424.25
2023-11-17T19:15:22.786Z,99443.34
2023-11-17T19:17:50.704Z,99450.88
2023-11-17T19:20:18.844Z,99452.31
2023-11-17T19:22:47.472Z,99454.94
2023-11-17T19:25:17.530Z,99452.13
2023-11-17T19:27:45.541Z,99459.00
2023-11-17T19:30:16.055Z,99458.91
2023-11-17T19:32:48.445Z,99451.47
2023-11-17T19:35:20.065Z,99468.72
2023-11-17T19:37:48.505Z,99458.31
2023-11-17T19:40:16.738Z,99468.72
2023-11-17T19:42:45.877Z,99476.56
2023-11-17T19:45:17.886Z,99461.97
2023-11-17T19:47:48.233Z,99463.06
2023-11-17T19:50:18.425Z,99457.94
2023-11-17T19:52:48.117Z,99459.28
2023-11-17T19:55:16.311Z,99455.06
2023-11-17T19:57:48.179Z,99459.75
2023-11-17T20:00:24.292Z,99460.47
2023-11-17T20:02:54.987Z,99456.56
2023-11-17T20:05:24.310Z,99462.38
2023-11-17T20:07:54.738Z,99461.31
2023-11-17T20:10:22.872Z,99459.28
2023-11-17T20:12:50.712Z,99465.53
2023-11-17T20:15:19.272Z,99466.25
2023-11-17T20:17:55.331Z,99469.38
2023-11-17T20:20:27.861Z,99468.31
2023-11-17T20:22:56.834Z,99477.84
2023-11-17T20:25:25.849Z,99484.41
2023-11-17T20:27:54.917Z,99480.03
2023-11-17T20:30:23.668Z,99483.56
2023-11-17T20:32:53.891Z,99501.31
2023-11-17T20:35:24.223Z,99509.28
2023-11-17T20:37:54.593Z,99513.88
2023-11-17T20:40:22.818Z,99520.06
2023-11-17T20:42:51.960Z,99527.09
2023-11-17T20:45:22.974Z,99529.50
2023-11-17T20:47:52.745Z,99524.59
2023-11-17T20:50:23.440Z,99528.31
2023-11-17T20:52:54.057Z,99526.38
2023-11-17T20:55:23.177Z,99521.03
2023-11-17T20:57:52.294Z,99527.16
2023-11-17T21:00:22.879Z,99540.22
2023-11-17T21:02:54.195Z,99537.75
2023-11-17T21:05:23.264Z,99545.19
2023-11-17T21:07:53.587Z,99550.16
2023-11-17T21:10:23.100Z,99550.09
2023-11-17T21:12:53.042Z,99553.13
2023-11-17T21:15:22.529Z,99559.25
2023-11-17T21:17:52.395Z,99556.03
2023-11-17T21:20:21.565Z,99562.94
2023-11-17T21:22:50.296Z,99550.22
2023-11-17T21:25:21.770Z,99562.50
2023-11-17T21:27:51.798Z,99570.34
2023-11-17T21:30:20.849Z,99566.38
2023-11-17T21:32:50.809Z,99574.28
2023-11-17T21:35:20.670Z,99570.38
2023-11-17T21:37:52.844Z,99569.91
2023-11-17T21:40:23.887Z,99568.22
2023-11-17T21:42:52.698Z,99574.13
2023-11-17T21:45:24.493Z,99594.13
2023-11-17T21:47:53.676Z,99606.75
2023-11-17T21:50:23.099Z,99603.06
2023-11-17T21:52:52.009Z,99601.28
2023-11-17T21:55:20.348Z,99606.44
2023-11-17T21:57:49.593Z,99614.50
2023-11-17T22:00:19.648Z,99622.00
2023-11-17T22:02:49.723Z,99630.78
2023-11-17T22:05:19.051Z,99641.13
2023-11-17T22:07:48.221Z,99637.66
2023-11-17T22:10:16.118Z,99644.53
2023-11-17T22:12:46.697Z,99634.94
2023-11-17T22:15:16.260Z,99630.09
2023-11-17T22:17:45.373Z,99635.25
2023-11-17T22:20:15.191Z,99639.94
2023-11-17T22:22:44.504Z,99637.06
2023-11-17T22:25:14.044Z,99626.81
2023-11-17T22:27:42.387Z,99636.16
2023-11-17T22:30:13.785Z,99645.56
2023-11-17T22:32:44.757Z,99654.53
2023-11-17T22:35:14.015Z,99655.88
2023-11-17T22:37:42.149Z,99650.41
2023-11-17T22:40:13.569Z,99656.09
2023-11-17T22:42:41.975Z,99651.50
2023-11-17T22:45:11.650Z,99650.38
2023-11-17T22:47:40.237Z,99654.69
2023-11-17T22:50:14.585Z,99658.84
2023-11-17T22:52:42.663Z,99669.41
2023-11-17T22:55:10.903Z,99667.59
2023-11-17T22:57:38.732Z,99663.72
2023-11-17T23:00:16.202Z,99670.31
2023-11-17T23:02:45.400Z,99683.34
2023-11-17T23:05:14.971Z,99674.41
2023-11-17T23:07:42.850Z,99681.50
2023-11-17T23:10:14.335Z,99680.94
2023-11-17T23:12:42.161Z,99683.66
2023-11-17T23:15:11.379Z,99673.88
2023-11-17T23:17:39.956Z,99678.94
2023-11-17T23:20:12.259Z,99670.38
2023-11-17T23:22:41.748Z,99677.88
2023-11-17T23:25:13.744Z,99682.31
2023-11-17T23:27:42.155Z,99680.13
2023-11-17T23:30:11.112Z,99682.00
2023-11-17T23:32:39.752Z,99683.94
2023-11-17T23:35:10.438Z,99684.59
2023-11-17T23:37:38.319Z,99669.75
2023-11-17T23:40:10.297Z,99679.13
2023-11-17T23:42:38.144Z,99669.94
2023-11-17T23:45:07.260Z,99670.53
2023-11-17T23:47:35.045Z,99676.78
2023-11-17T23:50:03.185Z,99686.22
2023-11-17T23:52:31.237Z,99685.50
2023-11-17T23:54:59.120Z,99686.13
2023-11-17T23:57:28.256Z,99686.69
2023-11-17T23:59:56.028Z,99688.50
